createdAt,value
2019-01-26T00:02:33.764Z,15.15
2019-01-26T00:05:21.672Z,15.23
2019-01-26T00:07:50.294Z,16.20
2019-01-26T00:10:38.304Z,16.20
2019-01-26T00:13:06.931Z,16.20
2019-01-26T00:15:35.691Z,18.70
2019-01-26T00:18:23.779Z,17.90
2019-01-26T00:21:07.796Z,15.78
2019-01-26T00:23:55.777Z,19.30
2019-01-26T00:26:37.571Z,17.00
2019-01-26T00:29:25.622Z,15.30
2019-01-26T00:32:10.848Z,19.20
2019-01-26T00:34:39.472Z,19.27
2019-01-26T00:37:27.482Z,19.62
2019-01-26T00:39:56.123Z,17.82
2019-01-26T00:42:24.856Z,17.07
2019-01-26T00:44:53.497Z,16.85
2019-01-26T00:47:41.411Z,17.65
2019-01-26T00:50:30.919Z,18.57
2019-01-26T00:52:59.680Z,18.73
2019-01-26T00:55:28.362Z,22.67
2019-01-26T00:57:57.153Z,18.45
2019-01-26T01:00:25.909Z,19.30
2019-01-26T01:03:13.895Z,19.40
2019-01-26T01:05:43.549Z,18.50
2019-01-26T01:08:12.238Z,20.27
2019-01-26T01:10:40.995Z,19.07
2019-01-26T01:13:22.324Z,21.48
2019-01-26T01:16:10.350Z,19.32
2019-01-26T01:18:52.124Z,20.72
2019-01-26T01:21:40.184Z,19.32
2019-01-26T01:24:21.235Z,18.45
2019-01-26T01:27:09.270Z,17.40
2019-01-26T01:29:50.679Z,18.62
2019-01-26T01:32:38.711Z,20.70
2019-01-26T01:35:20.650Z,17.90
2019-01-26T01:37:49.315Z,18.65
2019-01-26T01:40:18.376Z,18.65
2019-01-26T01:42:47.103Z,19.67
2019-01-26T01:45:35.113Z,18.70
2019-01-26T01:48:16.253Z,18.42
2019-01-26T01:50:44.937Z,19.57
2019-01-26T01:53:13.534Z,21.35
2019-01-26T01:55:42.234Z,19.70
2019-01-26T01:58:11.004Z,20.15
2019-01-26T02:00:39.772Z,20.20
2019-01-26T02:03:27.731Z,19.30
2019-01-26T02:06:09.855Z,20.97
2019-01-26T02:08:57.786Z,20.68
2019-01-26T02:11:39.827Z,19.10
2019-01-26T02:14:21.107Z,19.80
2019-01-26T02:17:09.372Z,18.42
2019-01-26T02:19:51.038Z,21.80
2019-01-26T02:22:39.312Z,21.55
2019-01-26T02:25:21.484Z,18.77
2019-01-26T02:28:28.978Z,18.50
2019-01-26T02:31:13.596Z,19.32
2019-01-26T02:34:01.897Z,18.05
2019-01-26T02:36:50.031Z,18.23
2019-01-26T02:39:38.337Z,17.30
2019-01-26T02:42:19.946Z,17.37
2019-01-26T02:45:27.467Z,16.90
2019-01-26T02:48:09.125Z,15.25
2019-01-26T02:50:57.382Z,15.30
2019-01-26T02:53:39.678Z,16.20
2019-01-26T02:56:27.974Z,17.25
2019-01-26T02:59:12.259Z,15.30
2019-01-26T03:02:03.250Z,15.68
2019-01-26T03:04:44.584Z,15.08
2019-01-26T03:07:32.776Z,15.93
2019-01-26T03:10:16.319Z,16.48
2019-01-26T03:13:04.811Z,17.65
2019-01-26T03:15:47.100Z,16.10
2019-01-26T03:18:35.522Z,16.50
2019-01-26T03:21:17.827Z,17.25
2019-01-26T03:24:05.839Z,16.12
2019-01-26T03:26:49.398Z,13.72
2019-01-26T03:29:38.298Z,15.20
2019-01-26T03:32:20.897Z,16.23
2019-01-26T03:35:09.206Z,16.85
2019-01-26T03:37:52.095Z,14.55
2019-01-26T03:40:41.718Z,16.45
2019-01-26T03:43:24.885Z,15.08
2019-01-26T03:46:15.137Z,15.45
2019-01-26T03:48:58.607Z,12.53
2019-01-26T03:51:27.381Z,15.68
2019-01-26T03:54:15.583Z,14.83
2019-01-26T03:56:57.292Z,16.05
2019-01-26T03:59:45.637Z,14.70
2019-01-26T04:02:27.568Z,15.28
2019-01-26T04:05:15.941Z,15.70
2019-01-26T04:08:04.176Z,14.28
2019-01-26T04:10:52.674Z,14.20
2019-01-26T04:13:34.404Z,15.13
2019-01-26T04:16:22.538Z,13.85
2019-01-26T04:19:10.711Z,14.93
2019-01-26T04:21:58.817Z,14.63
2019-01-26T04:24:47.059Z,13.45
2019-01-26T04:27:35.198Z,14.55
2019-01-26T04:30:18.196Z,13.32
2019-01-26T04:33:06.279Z,14.35
2019-01-26T04:35:48.359Z,13.20
2019-01-26T04:38:30.100Z,13.45
2019-01-26T04:41:18.185Z,13.32
2019-01-26T04:43:59.815Z,13.10
2019-01-26T04:46:48.781Z,14.98
2019-01-26T04:49:31.499Z,12.88
2019-01-26T04:52:19.893Z,13.20
2019-01-26T04:55:02.893Z,12.68
2019-01-26T04:57:51.789Z,13.65
2019-01-26T05:00:34.175Z,13.95
2019-01-26T05:03:22.519Z,12.88
2019-01-26T05:06:04.444Z,12.75
2019-01-26T05:11:53.553Z,13.95
2019-01-26T05:14:35.804Z,13.58
2019-01-26T05:17:17.337Z,13.60
2019-01-26T05:20:07.035Z,13.32
2019-01-26T05:22:48.758Z,11.08
2019-01-26T05:25:36.795Z,12.23
2019-01-26T05:28:18.545Z,10.48
2019-01-26T05:31:06.592Z,10.25
2019-01-26T05:33:49.148Z,9.45
2019-01-26T05:36:37.209Z,8.90
2019-01-26T05:39:20.062Z,9.95
2019-01-26T05:41:48.667Z,8.28
2019-01-26T05:44:36.653Z,9.85
2019-01-26T05:47:18.280Z,8.50
2019-01-26T05:50:07.798Z,9.55
2019-01-26T05:52:49.098Z,9.60
2019-01-26T05:55:37.170Z,8.33
2019-01-26T05:58:19.150Z,8.23
2019-01-26T06:01:01.006Z,9.40
2019-01-26T06:03:49.005Z,8.50
2019-01-26T06:06:30.136Z,8.98
2019-01-26T06:09:18.249Z,8.55
2019-01-26T06:12:00.325Z,9.03
2019-01-26T06:14:48.325Z,7.45
2019-01-26T06:17:30.016Z,7.70
2019-01-26T06:20:18.044Z,7.92
2019-01-26T06:23:06.028Z,8.23
2019-01-26T06:25:48.232Z,8.70
2019-01-26T06:28:36.190Z,8.00
2019-01-26T06:31:18.149Z,7.53
2019-01-26T06:34:06.229Z,8.25
2019-01-26T06:36:47.641Z,9.43
2019-01-26T06:39:35.612Z,7.40
2019-01-26T06:42:17.559Z,8.05
2019-01-26T06:45:26.299Z,9.13
2019-01-26T06:48:08.029Z,7.35
2019-01-26T06:50:56.060Z,7.25
2019-01-26T06:53:44.118Z,6.97
2019-01-26T06:56:25.876Z,7.65
2019-01-26T06:59:13.803Z,7.03
2019-01-26T07:01:55.435Z,8.15
2019-01-26T07:07:39.619Z,7.42
2019-01-26T07:10:27.617Z,8.90
2019-01-26T07:13:09.825Z,7.35
2019-01-26T07:18:59.461Z,7.37
2019-01-26T07:21:47.475Z,7.58
2019-01-26T07:24:32.261Z,8.75
2019-01-26T07:30:19.909Z,7.60
2019-01-26T07:33:07.953Z,8.10
2019-01-26T07:35:50.068Z,9.25
2019-01-26T07:38:18.676Z,7.78
2019-01-26T07:41:06.733Z,7.78
2019-01-26T07:43:35.316Z,7.22
2019-01-26T07:46:23.535Z,8.48
2019-01-26T07:48:52.233Z,8.53
2019-01-26T07:51:42.649Z,8.80
2019-01-26T07:54:24.109Z,7.83
2019-01-26T07:57:13.612Z,8.35
2019-01-26T07:59:55.542Z,9.40
2019-01-26T08:02:43.612Z,8.48
2019-01-26T08:05:33.064Z,8.20
2019-01-26T08:08:15.157Z,9.43
2019-01-26T08:11:03.155Z,7.50
2019-01-26T08:13:45.144Z,8.83
2019-01-26T08:16:26.489Z,7.12
2019-01-26T08:19:14.642Z,8.55
2019-01-26T08:21:56.127Z,9.18
2019-01-26T08:24:44.704Z,8.80
2019-01-26T08:27:27.185Z,7.95
2019-01-26T08:29:55.909Z,8.88
2019-01-26T08:32:44.021Z,9.13
2019-01-26T08:35:32.080Z,10.70
2019-01-26T08:38:15.650Z,9.03
2019-01-26T08:41:03.653Z,8.70
2019-01-26T08:43:45.590Z,7.28
2019-01-26T08:46:33.576Z,9.08
2019-01-26T08:49:15.607Z,6.95
2019-01-26T08:52:03.817Z,6.35
2019-01-26T08:54:45.252Z,7.20
2019-01-26T08:57:33.313Z,8.13
2019-01-26T09:00:19.654Z,8.33
2019-01-26T09:09:08.207Z,7.15
2019-01-26T09:11:56.194Z,8.20
2019-01-26T09:14:38.092Z,7.50
2019-01-26T09:17:20.017Z,8.13
2019-01-26T09:20:28.838Z,7.30
2019-01-26T09:23:10.206Z,7.65
2019-01-26T09:25:52.004Z,7.90
2019-01-26T09:28:39.937Z,7.17
2019-01-26T09:31:21.092Z,8.08
2019-01-26T09:34:09.092Z,7.28
2019-01-26T09:36:51.053Z,7.25
2019-01-26T09:39:39.054Z,8.10
2019-01-26T09:42:25.117Z,8.10
2019-01-26T09:45:27.581Z,7.97
2019-01-26T09:48:09.764Z,7.80
2019-01-26T09:50:51.768Z,8.53
2019-01-26T09:53:39.790Z,7.85
2019-01-26T09:56:21.863Z,7.58
2019-01-26T09:58:50.576Z,7.28
2019-01-26T10:01:38.546Z,7.40
2019-01-26T10:04:20.425Z,7.60
2019-01-26T10:07:08.478Z,6.30
2019-01-26T10:09:50.432Z,6.85
2019-01-26T10:12:38.569Z,6.75
2019-01-26T10:15:22.122Z,7.00
2019-01-26T10:18:04.848Z,8.15
2019-01-26T10:20:52.875Z,7.70
2019-01-26T10:23:34.858Z,7.15
2019-01-26T10:26:22.834Z,6.25
2019-01-26T10:29:04.952Z,6.62
2019-01-26T10:31:53.049Z,7.00
2019-01-26T10:34:35.104Z,7.40
2019-01-26T10:40:44.787Z,5.25
2019-01-26T10:43:52.038Z,4.50
2019-01-26T10:46:59.612Z,5.03
2019-01-26T10:49:41.516Z,4.47
2019-01-26T10:52:29.500Z,5.70
2019-01-26T10:55:11.822Z,5.33
2019-01-26T10:57:59.917Z,4.70
2019-01-26T11:00:41.531Z,5.62
2019-01-26T11:06:32.326Z,5.87
2019-01-26T11:09:20.373Z,5.03
2019-01-26T11:12:03.223Z,5.05
2019-01-26T11:14:51.235Z,4.97
2019-01-26T11:17:33.355Z,5.67
2019-01-26T11:20:21.395Z,5.97
2019-01-26T11:23:03.277Z,5.12
2019-01-26T11:25:32.519Z,4.72
2019-01-26T11:28:01.260Z,4.97
2019-01-26T11:30:49.491Z,5.42
2019-01-26T11:33:18.265Z,6.12
2019-01-26T11:35:47.113Z,5.00
2019-01-26T11:38:35.198Z,6.28
2019-01-26T11:41:16.741Z,5.62
2019-01-26T11:44:04.770Z,5.22
2019-01-26T11:46:33.456Z,4.55
2019-01-26T11:49:02.126Z,5.83
2019-01-26T11:51:51.762Z,5.15
2019-01-26T11:54:34.016Z,4.78
2019-01-26T11:57:22.092Z,5.10
2019-01-26T12:00:24.721Z,5.25
2019-01-26T12:03:31.992Z,5.72
2019-01-26T12:06:17.588Z,4.60
2019-01-26T12:08:46.445Z,5.03
2019-01-26T12:11:34.517Z,4.12
2019-01-26T12:14:22.650Z,5.25
2019-01-26T12:17:04.172Z,5.33
2019-01-26T12:19:52.159Z,5.08
2019-01-26T12:22:34.685Z,5.10
2019-01-26T12:25:16.854Z,4.80
2019-01-26T12:28:04.869Z,4.55
2019-01-26T12:30:46.817Z,4.72
2019-01-26T12:33:34.881Z,5.10
2019-01-26T12:36:16.940Z,4.95
2019-01-26T12:39:25.668Z,5.05
2019-01-26T12:42:07.745Z,5.70
2019-01-26T12:44:55.708Z,5.08
2019-01-26T12:47:37.494Z,5.28
2019-01-26T12:50:25.706Z,6.40
2019-01-26T12:53:11.285Z,4.72
2019-01-26T12:55:53.468Z,4.45
2019-01-26T12:58:41.468Z,4.85
2019-01-26T13:01:23.259Z,5.25
2019-01-26T13:04:11.272Z,4.62
2019-01-26T13:06:53.032Z,5.03
2019-01-26T13:09:54.824Z,5.80
2019-01-26T13:12:23.897Z,4.87
2019-01-26T13:15:15.358Z,5.83
2019-01-26T13:17:56.125Z,5.05
2019-01-26T13:20:37.373Z,6.05
2019-01-26T13:23:25.401Z,4.75
2019-01-26T13:26:08.526Z,5.05
2019-01-26T13:28:50.377Z,5.30
2019-01-26T13:31:38.392Z,5.42
2019-01-26T13:34:20.020Z,5.12
2019-01-26T13:37:08.083Z,5.08
2019-01-26T13:39:51.025Z,4.78
2019-01-26T13:42:39.038Z,4.62
2019-01-26T13:45:20.189Z,5.03
2019-01-26T13:48:08.184Z,4.45
2019-01-26T13:50:50.405Z,4.33
2019-01-26T13:53:19.142Z,4.70
2019-01-26T13:55:47.731Z,5.30
2019-01-26T13:58:16.500Z,4.58
2019-01-26T14:00:45.279Z,6.42
2019-01-26T14:03:33.308Z,4.60
2019-01-26T14:06:01.963Z,4.78
2019-01-26T14:08:30.707Z,6.72
2019-01-26T14:10:59.370Z,5.50
2019-01-26T14:13:27.984Z,5.92
2019-01-26T14:19:20.030Z,6.15
2019-01-26T14:22:01.973Z,5.45
2019-01-26T14:24:50.049Z,5.47
2019-01-26T14:27:38.154Z,6.10
2019-01-26T14:30:23.832Z,5.65
2019-01-26T14:33:11.805Z,6.00
2019-01-26T14:35:53.811Z,5.80
2019-01-26T14:38:41.849Z,6.62
2019-01-26T14:41:23.804Z,5.80
2019-01-26T14:44:11.808Z,5.40
2019-01-26T14:46:53.646Z,5.28
2019-01-26T14:49:41.642Z,5.72
2019-01-26T14:52:23.409Z,5.50
2019-01-26T14:55:32.146Z,5.85
2019-01-26T14:58:14.256Z,5.30
2019-01-26T15:00:42.971Z,5.53
2019-01-26T15:03:31.077Z,6.05
2019-01-26T15:06:13.123Z,5.75
2019-01-26T15:08:55.969Z,4.37
2019-01-26T15:11:44.013Z,5.25
2019-01-26T15:14:25.882Z,5.87
2019-01-26T15:17:13.834Z,5.08
2019-01-26T15:19:55.108Z,5.08
2019-01-26T15:22:43.038Z,5.60
2019-01-26T15:25:24.978Z,5.60
2019-01-26T15:28:12.946Z,5.60
2019-01-26T15:31:01.007Z,6.50
2019-01-26T15:33:42.225Z,6.33
2019-01-26T15:36:30.267Z,6.62
2019-01-26T15:39:11.795Z,7.25
2019-01-26T15:41:59.904Z,7.25
2019-01-26T15:44:41.568Z,6.72
2019-01-26T15:47:29.634Z,6.25
2019-01-26T15:50:13.224Z,6.05
2019-01-26T15:53:01.459Z,7.12
2019-01-26T15:55:43.380Z,6.67
2019-01-26T15:58:31.351Z,6.75
2019-01-26T16:01:13.385Z,6.25
2019-01-26T16:04:01.421Z,7.05
2019-01-26T16:06:43.393Z,6.80
2019-01-26T16:09:31.442Z,7.30
2019-01-26T16:12:12.687Z,7.50
2019-01-26T16:15:00.637Z,7.40
2019-01-26T16:17:42.207Z,7.22
2019-01-26T16:20:24.043Z,6.95
2019-01-26T16:23:09.668Z,7.40
2019-01-26T16:25:55.830Z,7.12
2019-01-26T16:28:37.379Z,6.58
2019-01-26T16:31:06.144Z,7.20
2019-01-26T16:33:54.093Z,7.47
2019-01-26T16:36:42.070Z,8.25
2019-01-26T16:39:24.071Z,8.80
2019-01-26T16:42:12.059Z,9.20
2019-01-26T16:45:00.197Z,8.83
2019-01-26T16:47:42.144Z,9.23
2019-01-26T16:50:30.785Z,7.87
2019-01-26T16:53:12.466Z,11.97
2019-01-26T16:55:41.242Z,11.93
2019-01-26T16:58:29.312Z,12.13
2019-01-26T17:01:10.533Z,9.98
2019-01-26T17:03:39.317Z,9.18
2019-01-26T17:06:27.288Z,8.55
2019-01-26T17:09:08.937Z,7.53
2019-01-26T17:11:56.986Z,7.20
2019-01-26T17:14:44.972Z,7.90
2019-01-26T17:17:33.043Z,7.12
2019-01-26T17:20:16.547Z,6.28
2019-01-26T17:23:04.707Z,7.08
2019-01-26T17:25:46.486Z,6.55
2019-01-26T17:28:34.533Z,6.92
2019-01-26T17:31:03.318Z,7.53
2019-01-26T17:33:51.379Z,6.78
2019-01-26T17:36:39.367Z,6.45
2019-01-26T17:39:22.369Z,7.28
2019-01-26T17:42:04.233Z,6.50
2019-01-26T17:44:52.446Z,6.72
2019-01-26T17:47:34.331Z,6.05
2019-01-26T17:50:42.076Z,5.70
2019-01-26T17:53:19.237Z,5.37
2019-01-26T17:56:07.180Z,4.25
2019-01-26T17:58:55.242Z,5.50
2019-01-26T18:01:37.216Z,5.28
2019-01-26T18:04:25.272Z,5.50
2019-01-26T18:07:07.426Z,5.80
2019-01-26T18:09:49.248Z,5.60
2019-01-26T18:12:37.175Z,5.90
2019-01-26T18:15:19.428Z,5.72
2019-01-26T18:18:07.501Z,5.58
2019-01-26T18:20:49.615Z,4.83
2019-01-26T18:23:37.841Z,5.20
2019-01-26T18:26:25.843Z,4.83
2019-01-26T18:29:07.618Z,6.80
2019-01-26T18:31:55.597Z,5.45
2019-01-26T18:34:37.530Z,5.90
2019-01-26T18:37:25.569Z,5.60
2019-01-26T18:40:08.595Z,6.10
2019-01-26T18:42:56.844Z,6.12
2019-01-26T18:45:38.868Z,4.83
2019-01-26T18:48:26.819Z,6.75
2019-01-26T18:51:08.415Z,7.80
2019-01-26T18:53:56.405Z,6.45
2019-01-26T18:56:37.528Z,6.75
2019-01-26T18:59:25.545Z,4.95
2019-01-26T19:02:06.998Z,5.15
2019-01-26T19:04:54.960Z,4.30
2019-01-26T19:07:42.904Z,4.85
2019-01-26T19:10:30.888Z,4.35
2019-01-26T19:13:12.929Z,4.25
2019-01-26T19:16:00.853Z,4.97
2019-01-26T19:18:43.124Z,4.50
2019-01-26T19:21:11.858Z,4.60
2019-01-26T19:23:59.900Z,5.45
2019-01-26T19:26:41.132Z,3.92
2019-01-26T19:29:29.137Z,4.78
2019-01-26T19:32:10.934Z,4.97
2019-01-26T19:34:39.519Z,5.00
2019-01-26T19:37:27.480Z,4.80
2019-01-26T19:40:10.299Z,3.80
2019-01-26T19:42:58.372Z,4.00
2019-01-26T19:45:40.490Z,4.00
2019-01-26T19:48:28.502Z,3.75
2019-01-26T19:51:16.465Z,4.40
2019-01-26T19:53:58.414Z,4.25
2019-01-26T19:56:46.380Z,4.15
2019-01-26T19:59:15.088Z,3.62
2019-01-26T20:02:03.124Z,4.10
2019-01-26T20:04:31.873Z,3.62
2019-01-26T20:07:19.904Z,2.98
2019-01-26T20:10:01.110Z,3.42
2019-01-26T20:12:49.114Z,3.42
2019-01-26T20:15:30.437Z,3.72
2019-01-26T20:18:18.412Z,3.83
2019-01-26T20:21:00.310Z,3.90
2019-01-26T20:23:48.353Z,3.90
2019-01-26T20:26:30.568Z,3.30
2019-01-26T20:29:18.580Z,3.35
2019-01-26T20:32:00.728Z,4.08
2019-01-26T20:34:48.633Z,3.72
2019-01-26T20:37:36.672Z,3.00
2019-01-26T20:40:18.678Z,3.72
2019-01-26T20:43:06.709Z,4.00
2019-01-26T20:45:48.076Z,4.60
2019-01-26T20:48:36.085Z,5.05
2019-01-26T20:51:25.014Z,5.00
2019-01-26T20:54:07.321Z,4.05
2019-01-26T20:56:55.353Z,4.50
2019-01-26T20:59:36.929Z,4.10
2019-01-26T21:02:24.849Z,3.87
2019-01-26T21:05:08.726Z,3.90
2019-01-26T21:07:56.968Z,3.75
2019-01-26T21:10:38.132Z,3.50
2019-01-26T21:13:26.153Z,3.70
2019-01-26T21:15:54.940Z,3.20
2019-01-26T21:18:42.939Z,2.77
2019-01-26T21:21:24.774Z,3.75
2019-01-26T21:24:12.763Z,4.05
2019-01-26T21:26:54.683Z,3.70
2019-01-26T21:29:42.656Z,3.60
2019-01-26T21:32:24.002Z,3.85
2019-01-26T21:35:12.069Z,3.62
2019-01-26T21:38:00.007Z,3.62
2019-01-26T21:40:48.057Z,3.17
2019-01-26T21:43:29.564Z,3.37
2019-01-26T21:46:17.569Z,4.17
2019-01-26T21:49:03.605Z,3.87
2019-01-26T21:51:51.737Z,3.25
2019-01-26T21:54:33.729Z,3.30
2019-01-26T21:57:21.704Z,3.10
2019-01-26T22:00:04.997Z,3.35
2019-01-26T22:02:53.021Z,3.45
2019-01-26T22:05:35.123Z,3.45
2019-01-26T22:08:23.141Z,3.00
2019-01-26T22:11:05.062Z,2.85
2019-01-26T22:13:52.996Z,3.70
2019-01-26T22:16:34.861Z,3.52
2019-01-26T22:19:22.896Z,2.50
2019-01-26T22:22:04.940Z,3.58
2019-01-26T22:24:53.058Z,3.10
2019-01-26T22:27:35.093Z,3.20
2019-01-26T22:30:42.381Z,2.50
2019-01-26T22:33:25.016Z,2.90
2019-01-26T22:36:13.060Z,3.70
2019-01-26T22:38:54.908Z,3.45
2019-01-26T22:41:42.966Z,3.70
2019-01-26T22:44:24.617Z,2.80
2019-01-26T22:47:12.572Z,3.05
2019-01-26T22:49:54.561Z,3.50
2019-01-26T22:52:42.614Z,3.47
2019-01-26T22:55:24.803Z,3.12
2019-01-26T22:58:07.677Z,2.58
2019-01-26T23:01:09.756Z,3.33
2019-01-26T23:03:53.284Z,3.83
2019-01-26T23:07:00.621Z,3.72
2019-01-26T23:10:07.942Z,3.00
2019-01-26T23:12:51.413Z,3.40
2019-01-26T23:15:58.652Z,2.60
2019-01-26T23:18:59.996Z,3.08
2019-01-26T23:22:02.453Z,3.17
2019-01-26T23:25:09.782Z,3.30
2019-01-26T23:28:17.120Z,2.87
2019-01-26T23:31:24.435Z,2.50
2019-01-26T23:34:09.761Z,2.95
2019-01-26T23:36:38.520Z,3.05
2019-01-26T23:39:28.530Z,3.22
2019-01-26T23:42:16.552Z,2.45
2019-01-26T23:44:58.600Z,2.80
2019-01-26T23:47:46.723Z,3.10
2019-01-26T23:50:28.008Z,2.55
2019-01-26T23:53:09.117Z,2.35
2019-01-26T23:55:57.102Z,2.90
2019-01-26T23:58:25.690Z,2.42
